Sinds 24 augustus testen wij een tweede fijnstof-sensor en we tonen beide sensors onder elkaar op de start-pagina.
Het weer levert geen direct gevaar op.    Er zijn geen waarschuwingen afgegeven.

Lokaal brand risico:
CBI


Regionaal brand risico: Meer informatie


Weerstation
Sluispark-LeuvenLeuven-Sluispark

Weerstation
Wilsele-PutkapelWilsele-Putkapel



Nabijgelegen vliegvelden - METAR rapporten

   
EBBR - Wilsele bij Leuven
Gewijzigd: 23-09-2020 23:20
Kleine buien, Regen, Grotendeels bewolkt    Wind: ZZW 20.4 km/h
Kleine buien, Regen, Grotendeels bewolkt
Wind: Wind: ZZW 20.4 km/h
Temperatuur: 16°C
Dauwpunt: 14°C
Vochtigheid: 88%
Barometer: 1000 hPa
Bewolking: Grotendeels bewolkt
Zicht: meer dan 10 km
Bewolking: Licht bewolkt 1005.8 m,
Grotendeels bewolkt 1127.8 m
EBBR 232120Z 20011KT 9999 -SHRA FEW033 BKN037TCU 16/14 Q1000 TEMPO 22015G25KT SHRA
EBAW - Antwerp
Gewijzigd: 23-09-2020 23:20
Regenbuien, Regen, Grotendeels bewolkt    Wind: ZZW 18.5 km/h
Regenbuien, Regen, Grotendeels bewolkt
Wind: Wind: ZZW 18.5 km/h
Temperatuur: 17°C
Dauwpunt: 15°C
Vochtigheid: 88%
Barometer: 999 hPa
Bewolking: Grotendeels bewolkt
Zicht: 6 km
Bewolking: Grotendeels bewolkt 61 m,
Grotendeels bewolkt 1341.1 m
EBAW 232120Z AUTO 20010KT 6000 SHRA BKN002/// BKN044/// 17/15 Q0999 RESHRA
EBLG - Li├Ęge
Gewijzigd: 23-09-2020 23:20
Kleine buien, Regen, Licht bewolkt    Wind: Zuiden 22.2 km/h
Kleine buien, Regen, Licht bewolkt
Wind: Wind: Zuiden 22.2 km/h
Temperatuur: 19°C
Dauwpunt: 12°C
Vochtigheid: 64%
Barometer: 1001 hPa
Bewolking: Licht bewolkt
Zicht: 8 km
Bewolking: Licht bewolkt 914.4 m
EBLG 232120Z 19012KT 8000 -SHRA FEW030TCU 19/12 Q1001 TEMPO 22015G28KT 4000 SHRA
EBCV - Mons/Bergen
Gewijzigd: 23-09-2020 23:25
Grotendeels bewolkt    Wind: ZW 22.2 km/h
Grotendeels bewolkt
Wind: Wind: ZW 22.2 km/h
Temperatuur: 16°C
Dauwpunt: 15°C
Vochtigheid: 94%
Barometer: 1000 hPa
Bewolking: Grotendeels bewolkt
Zicht: meer dan 10 km
Bewolking: Grotendeels bewolkt 274.3 m
EBCV 232125Z AUTO 22012KT 9999 BKN009/// 16/15 Q1000 GRN
EHBK - Maastricht
Gewijzigd: 23-09-2020 23:25
Licht bewolkt    Wind: Zuiden 20.4 km/h
Licht bewolkt
Wind: Wind: Zuiden 20.4 km/h
Temperatuur: 20°C
Dauwpunt: 11°C
Vochtigheid: 56%
Barometer: 1000 hPa
Bewolking: Licht bewolkt
Zicht: meer dan 10 km
Bewolking: Licht bewolkt 975.4 m
EHBK 232125Z AUTO 18011KT 150V210 9999 FEW032CB 20/11 Q1000
ELLX - Luxemburg
Gewijzigd: 23-09-2020 23:20
Helder    Wind: Zuiden 20.4 km/h
Helder
Wind: Wind: Zuiden 20.4 km/h
Temperatuur: 17°C
Dauwpunt: 12°C
Vochtigheid: 73%
Barometer: 1004 hPa
Zicht: meer dan 10 km
Bewolking: Helder
ELLX 232120Z 18011KT CAVOK 17/12 Q1004 NOSIG
EBOS - Oostende
Gewijzigd: 23-09-2020 23:20
Grotendeels bewolkt    Wind: WZW 33.3 km/h
Grotendeels bewolkt
Wind: Wind: WZW 33.3 km/h
Temperatuur: 14°C
Dauwpunt: 13°C
Vochtigheid: 94%
Barometer: 999 hPa
Bewolking: Grotendeels bewolkt
Zicht: meer dan 10 km
Bewolking: Gedeeltelijk bewolkt 274.3 m,
Grotendeels bewolkt 762 m
EBOS 232120Z 24018KT 9999 SCT009 BKN025 14/13 Q0999 NOSIG
  

Script ontwikkeld door  Saratoga-weather.org Aangepast voor de template door  Weerstation Leuven

U vindt ons ook hier:

UK Metoffice

WeatherCloud

European Weather Network

Weather Underground

Benelux Weather Network

AWEKAS

WeatherlinkIP

HAMweather, WeatherForYou, PWS Weather

Het Weer Aktueel

Apparatuur in gebruik:

Weer-station
Davis VP2 weatherstation

Weer-programma
Meteobridge

Weer-computer
D-Link DIR-505

Webleverancier
Robohost

Davis VP2 weatherstation

Meteobridge

D-Link DIR-505

Robohost